sensor_id;sensor_type;location;lat;lon;timestamp;P1;durP1;ratioP1;P2;durP2;ratioP2
7829;SDS011;3960;51.86894000;5.39848000;2022-09-12T00:01:56;32.65;;;23.30;;
7829;SDS011;3960;51.86894000;5.39848000;2022-09-12T00:04:21;30.48;;;22.83;;
7829;SDS011;3960;51.86894000;5.39848000;2022-09-12T00:06:46;33.72;;;24.27;;
7829;SDS011;3960;51.86894000;5.39848000;2022-09-12T00:09:12;29.85;;;22.50;;
7829;SDS011;3960;51.86894000;5.39848000;2022-09-12T00:11:39;35.05;;;23.17;;
7829;SDS011;3960;51.86894000;5.39848000;2022-09-12T00:14:05;32.90;;;22.95;;
7829;SDS011;3960;51.86894000;5.39848000;2022-09-12T00:16:31;33.20;;;22.63;;
7829;SDS011;3960;51.86894000;5.39848000;2022-09-12T00:18:56;31.77;;;22.27;;
7829;SDS011;3960;51.86894000;5.39848000;2022-09-12T00:21:22;31.33;;;23.38;;
7829;SDS011;3960;51.86894000;5.39848000;2022-09-12T00:23:47;36.67;;;24.38;;
7829;SDS011;3960;51.86894000;5.39848000;2022-09-12T00:26:13;31.75;;;22.42;;
7829;SDS011;3960;51.86894000;5.39848000;2022-09-12T00:28:39;31.70;;;22.73;;
7829;SDS011;3960;51.86894000;5.39848000;2022-09-12T00:31:06;31.55;;;23.20;;
7829;SDS011;3960;51.86894000;5.39848000;2022-09-12T00:33:31;34.95;;;23.60;;
7829;SDS011;3960;51.86894000;5.39848000;2022-09-12T00:35:57;37.35;;;22.38;;
7829;SDS011;3960;51.86894000;5.39848000;2022-09-12T00:38:22;34.80;;;22.23;;
7829;SDS011;3960;51.86894000;5.39848000;2022-09-12T00:40:47;32.07;;;22.13;;
7829;SDS011;3960;51.86894000;5.39848000;2022-09-12T00:43:14;36.80;;;24.00;;
7829;SDS011;3960;51.86894000;5.39848000;2022-09-12T00:45:39;38.47;;;22.50;;
7829;SDS011;3960;51.86894000;5.39848000;2022-09-12T00:48:07;33.83;;;22.20;;
7829;SDS011;3960;51.86894000;5.39848000;2022-09-12T00:50:41;30.08;;;22.20;;
7829;SDS011;3960;51.86894000;5.39848000;2022-09-12T00:53:06;35.37;;;23.43;;
7829;SDS011;3960;51.86894000;5.39848000;2022-09-12T00:55:35;29.05;;;22.33;;
7829;SDS011;3960;51.86894000;5.39848000;2022-09-12T00:58:03;29.77;;;22.30;;
7829;SDS011;3960;51.86894000;5.39848000;2022-09-12T01:00:30;31.70;;;22.73;;
7829;SDS011;3960;51.86894000;5.39848000;2022-09-12T01:02:58;32.45;;;22.55;;
7829;SDS011;3960;51.86894000;5.39848000;2022-09-12T01:05:24;31.02;;;22.73;;
7829;SDS011;3960;51.86894000;5.39848000;2022-09-12T01:07:50;35.35;;;23.27;;
7829;SDS011;3960;51.86894000;5.39848000;2022-09-12T01:10:16;30.33;;;23.27;;
7829;SDS011;3960;51.86894000;5.39848000;2022-09-12T01:12:42;33.50;;;23.45;;
7829;SDS011;3960;51.86894000;5.39848000;2022-09-12T01:15:08;36.00;;;23.83;;
7829;SDS011;3960;51.86894000;5.39848000;2022-09-12T01:25:45;32.63;;;24.15;;
7829;SDS011;3960;51.86894000;5.39848000;2022-09-12T01:31:01;34.97;;;24.33;;
7829;SDS011;3960;51.86894000;5.39848000;2022-09-12T01:36:00;34.40;;;22.88;;
7829;SDS011;3960;51.86894000;5.39848000;2022-09-12T01:43:22;34.72;;;23.13;;
7829;SDS011;3960;51.86894000;5.39848000;2022-09-12T01:46:02;32.38;;;23.48;;
7829;SDS011;3960;51.86894000;5.39848000;2022-09-12T01:48:34;35.25;;;25.65;;
7829;SDS011;3960;51.86894000;5.39848000;2022-09-12T01:53:34;36.92;;;25.35;;
7829;SDS011;3960;51.86894000;5.39848000;2022-09-12T01:56:08;34.47;;;24.92;;
7829;SDS011;3960;51.86894000;5.39848000;2022-09-12T01:58:37;33.83;;;25.35;;
7829;SDS011;3960;51.86894000;5.39848000;2022-09-12T02:01:10;39.97;;;25.33;;
7829;SDS011;3960;51.86894000;5.39848000;2022-09-12T02:03:40;39.30;;;25.48;;
7829;SDS011;3960;51.86894000;5.39848000;2022-09-12T02:06:14;36.15;;;24.45;;
7829;SDS011;3960;51.86894000;5.39848000;2022-09-12T02:08:45;41.08;;;23.50;;
7829;SDS011;3960;51.86894000;5.39848000;2022-09-12T02:11:11;35.55;;;24.75;;
7829;SDS011;3960;51.86894000;5.39848000;2022-09-12T02:13:38;39.63;;;25.10;;
7829;SDS011;3960;51.86894000;5.39848000;2022-09-12T02:16:09;36.63;;;25.67;;
7829;SDS011;3960;51.86894000;5.39848000;2022-09-12T02:18:36;47.70;;;23.80;;
7829;SDS011;3960;51.86894000;5.39848000;2022-09-12T02:21:02;35.60;;;22.75;;
7829;SDS011;3960;51.86894000;5.39848000;2022-09-12T02:23:30;32.22;;;21.80;;
7829;SDS011;3960;51.86894000;5.39848000;2022-09-12T02:26:07;33.10;;;23.17;;
7829;SDS011;3960;51.86894000;5.39848000;2022-09-12T02:28:34;33.85;;;22.27;;
7829;SDS011;3960;51.86894000;5.39848000;2022-09-12T02:33:36;35.35;;;23.30;;
7829;SDS011;3960;51.86894000;5.39848000;2022-09-12T02:36:09;33.75;;;24.27;;
7829;SDS011;3960;51.86894000;5.39848000;2022-09-12T02:38:44;35.28;;;23.95;;
7829;SDS011;3960;51.86894000;5.39848000;2022-09-12T02:41:11;31.95;;;23.13;;
7829;SDS011;3960;51.86894000;5.39848000;2022-09-12T02:43:38;37.60;;;23.85;;
7829;SDS011;3960;51.86894000;5.39848000;2022-09-12T02:46:04;35.60;;;23.40;;
7829;SDS011;3960;51.86894000;5.39848000;2022-09-12T02:48:31;32.05;;;22.15;;
7829;SDS011;3960;51.86894000;5.39848000;2022-09-12T02:50:58;34.20;;;22.70;;
7829;SDS011;3960;51.86894000;5.39848000;2022-09-12T02:53:25;30.80;;;20.73;;
7829;SDS011;3960;51.86894000;5.39848000;2022-09-12T02:55:51;35.95;;;22.98;;
7829;SDS011;3960;51.86894000;5.39848000;2022-09-12T02:58:17;32.63;;;20.98;;
7829;SDS011;3960;51.86894000;5.39848000;2022-09-12T03:01:07;35.42;;;22.52;;
7829;SDS011;3960;51.86894000;5.39848000;2022-09-12T03:05:58;37.58;;;25.55;;
7829;SDS011;3960;51.86894000;5.39848000;2022-09-12T03:11:14;32.22;;;22.05;;
7829;SDS011;3960;51.86894000;5.39848000;2022-09-12T03:13:54;36.67;;;23.08;;
7829;SDS011;3960;51.86894000;5.39848000;2022-09-12T03:16:26;34.65;;;24.73;;
7829;SDS011;3960;51.86894000;5.39848000;2022-09-12T03:22:22;34.28;;;23.73;;
7829;SDS011;3960;51.86894000;5.39848000;2022-09-12T03:24:16;38.42;;;25.92;;
7829;SDS011;3960;51.86894000;5.39848000;2022-09-12T03:26:43;38.10;;;24.48;;
7829;SDS011;3960;51.86894000;5.39848000;2022-09-12T03:29:11;37.70;;;25.00;;
7829;SDS011;3960;51.86894000;5.39848000;2022-09-12T03:31:37;38.75;;;24.27;;
7829;SDS011;3960;51.86894000;5.39848000;2022-09-12T03:34:11;35.75;;;23.77;;
7829;SDS011;3960;51.86894000;5.39848000;2022-09-12T03:36:37;36.22;;;24.20;;
7829;SDS011;3960;51.86894000;5.39848000;2022-09-12T03:39:03;37.35;;;23.80;;
7829;SDS011;3960;51.86894000;5.39848000;2022-09-12T03:41:28;37.23;;;24.17;;
7829;SDS011;3960;51.86894000;5.39848000;2022-09-12T03:43:53;36.03;;;23.60;;
7829;SDS011;3960;51.86894000;5.39848000;2022-09-12T03:46:20;36.92;;;23.45;;
7829;SDS011;3960;51.86894000;5.39848000;2022-09-12T03:48:46;38.63;;;25.13;;
7829;SDS011;3960;51.86894000;5.39848000;2022-09-12T03:51:11;37.03;;;24.10;;
7829;SDS011;3960;51.86894000;5.39848000;2022-09-12T03:53:36;38.40;;;25.35;;
7829;SDS011;3960;51.86894000;5.39848000;2022-09-12T03:56:05;41.15;;;25.23;;
7829;SDS011;3960;51.86894000;5.39848000;2022-09-12T03:58:31;38.72;;;25.02;;
7829;SDS011;3960;51.86894000;5.39848000;2022-09-12T04:00:57;43.42;;;27.48;;
7829;SDS011;3960;51.86894000;5.39848000;2022-09-12T04:03:23;48.28;;;27.17;;
7829;SDS011;3960;51.86894000;5.39848000;2022-09-12T04:05:48;47.40;;;27.35;;
7829;SDS011;3960;51.86894000;5.39848000;2022-09-12T04:08:13;42.17;;;26.57;;
7829;SDS011;3960;51.86894000;5.39848000;2022-09-12T04:10:38;38.25;;;25.88;;
7829;SDS011;3960;51.86894000;5.39848000;2022-09-12T04:13:04;41.90;;;25.58;;
7829;SDS011;3960;51.86894000;5.39848000;2022-09-12T04:15:29;45.97;;;27.65;;
7829;SDS011;3960;51.86894000;5.39848000;2022-09-12T04:17:54;47.85;;;28.38;;
7829;SDS011;3960;51.86894000;5.39848000;2022-09-12T04:20:19;46.97;;;29.50;;
7829;SDS011;3960;51.86894000;5.39848000;2022-09-12T04:22:45;44.83;;;28.80;;
7829;SDS011;3960;51.86894000;5.39848000;2022-09-12T04:25:10;47.87;;;28.83;;
7829;SDS011;3960;51.86894000;5.39848000;2022-09-12T04:27:35;50.20;;;28.45;;
7829;SDS011;3960;51.86894000;5.39848000;2022-09-12T04:30:01;47.03;;;29.05;;
7829;SDS011;3960;51.86894000;5.39848000;2022-09-12T04:32:28;48.20;;;29.20;;
7829;SDS011;3960;51.86894000;5.39848000;2022-09-12T04:34:53;54.17;;;29.13;;
7829;SDS011;3960;51.86894000;5.39848000;2022-09-12T04:37:18;48.43;;;29.57;;
7829;SDS011;3960;51.86894000;5.39848000;2022-09-12T04:39:43;53.33;;;30.10;;
7829;SDS011;3960;51.86894000;5.39848000;2022-09-12T04:42:09;51.40;;;29.97;;
7829;SDS011;3960;51.86894000;5.39848000;2022-09-12T04:44:34;51.80;;;29.50;;
7829;SDS011;3960;51.86894000;5.39848000;2022-09-12T04:46:59;62.00;;;31.13;;
7829;SDS011;3960;51.86894000;5.39848000;2022-09-12T04:49:24;56.80;;;32.90;;
7829;SDS011;3960;51.86894000;5.39848000;2022-09-12T04:51:51;54.97;;;31.13;;
7829;SDS011;3960;51.86894000;5.39848000;2022-09-12T04:54:17;58.05;;;33.17;;
7829;SDS011;3960;51.86894000;5.39848000;2022-09-12T04:56:43;60.45;;;34.60;;
7829;SDS011;3960;51.86894000;5.39848000;2022-09-12T04:59:09;69.38;;;34.80;;
7829;SDS011;3960;51.86894000;5.39848000;2022-09-12T05:01:35;61.22;;;33.72;;
7829;SDS011;3960;51.86894000;5.39848000;2022-09-12T05:04:00;61.50;;;35.08;;
7829;SDS011;3960;51.86894000;5.39848000;2022-09-12T05:06:30;60.47;;;34.67;;
7829;SDS011;3960;51.86894000;5.39848000;2022-09-12T05:08:55;59.40;;;32.83;;
7829;SDS011;3960;51.86894000;5.39848000;2022-09-12T05:11:23;60.08;;;33.55;;
7829;SDS011;3960;51.86894000;5.39848000;2022-09-12T05:13:49;63.90;;;33.55;;
7829;SDS011;3960;51.86894000;5.39848000;2022-09-12T05:16:15;60.78;;;33.35;;
7829;SDS011;3960;51.86894000;5.39848000;2022-09-12T05:18:41;61.95;;;34.63;;
7829;SDS011;3960;51.86894000;5.39848000;2022-09-12T05:21:06;66.90;;;37.55;;
7829;SDS011;3960;51.86894000;5.39848000;2022-09-12T05:23:33;63.38;;;37.35;;
7829;SDS011;3960;51.86894000;5.39848000;2022-09-12T05:25:58;70.97;;;38.45;;
7829;SDS011;3960;51.86894000;5.39848000;2022-09-12T05:28:27;66.18;;;36.63;;
7829;SDS011;3960;51.86894000;5.39848000;2022-09-12T05:31:12;70.68;;;36.58;;
7829;SDS011;3960;51.86894000;5.39848000;2022-09-12T05:33:38;64.32;;;35.97;;
7829;SDS011;3960;51.86894000;5.39848000;2022-09-12T05:36:04;60.92;;;35.08;;
7829;SDS011;3960;51.86894000;5.39848000;2022-09-12T05:38:30;64.93;;;34.92;;
7829;SDS011;3960;51.86894000;5.39848000;2022-09-12T05:41:02;62.70;;;33.63;;
7829;SDS011;3960;51.86894000;5.39848000;2022-09-12T05:43:27;64.30;;;34.00;;
7829;SDS011;3960;51.86894000;5.39848000;2022-09-12T05:45:58;60.85;;;32.78;;
7829;SDS011;3960;51.86894000;5.39848000;2022-09-12T05:48:23;62.38;;;33.80;;
7829;SDS011;3960;51.86894000;5.39848000;2022-09-12T05:50:49;59.60;;;35.15;;
7829;SDS011;3960;51.86894000;5.39848000;2022-09-12T05:53:14;67.60;;;34.70;;
7829;SDS011;3960;51.86894000;5.39848000;2022-09-12T05:55:39;62.50;;;34.00;;
7829;SDS011;3960;51.86894000;5.39848000;2022-09-12T05:58:05;61.50;;;33.63;;
7829;SDS011;3960;51.86894000;5.39848000;2022-09-12T06:00:31;65.32;;;32.53;;
7829;SDS011;3960;51.86894000;5.39848000;2022-09-12T06:02:56;58.67;;;31.70;;
7829;SDS011;3960;51.86894000;5.39848000;2022-09-12T06:05:21;63.85;;;32.70;;
7829;SDS011;3960;51.86894000;5.39848000;2022-09-12T06:07:46;59.93;;;33.40;;
7829;SDS011;3960;51.86894000;5.39848000;2022-09-12T06:10:12;56.97;;;31.42;;
7829;SDS011;3960;51.86894000;5.39848000;2022-09-12T06:12:37;60.92;;;31.50;;
7829;SDS011;3960;51.86894000;5.39848000;2022-09-12T06:15:03;57.60;;;32.70;;
7829;SDS011;3960;51.86894000;5.39848000;2022-09-12T06:17:28;58.83;;;31.95;;
7829;SDS011;3960;51.86894000;5.39848000;2022-09-12T06:19:53;60.80;;;33.67;;
7829;SDS011;3960;51.86894000;5.39848000;2022-09-12T06:22:19;67.50;;;34.05;;
7829;SDS011;3960;51.86894000;5.39848000;2022-09-12T06:24:45;59.03;;;32.17;;
7829;SDS011;3960;51.86894000;5.39848000;2022-09-12T06:27:10;63.50;;;32.70;;
7829;SDS011;3960;51.86894000;5.39848000;2022-09-12T06:29:35;54.60;;;31.60;;
7829;SDS011;3960;51.86894000;5.39848000;2022-09-12T06:32:00;61.88;;;32.55;;
7829;SDS011;3960;51.86894000;5.39848000;2022-09-12T06:34:26;58.53;;;31.02;;
7829;SDS011;3960;51.86894000;5.39848000;2022-09-12T06:36:51;64.50;;;31.30;;
7829;SDS011;3960;51.86894000;5.39848000;2022-09-12T06:39:17;56.87;;;31.47;;
7829;SDS011;3960;51.86894000;5.39848000;2022-09-12T06:41:43;59.85;;;31.63;;
7829;SDS011;3960;51.86894000;5.39848000;2022-09-12T06:44:10;61.08;;;32.70;;
7829;SDS011;3960;51.86894000;5.39848000;2022-09-12T06:46:36;52.40;;;31.65;;
7829;SDS011;3960;51.86894000;5.39848000;2022-09-12T06:49:01;49.10;;;29.37;;
7829;SDS011;3960;51.86894000;5.39848000;2022-09-12T06:51:27;58.58;;;29.98;;
7829;SDS011;3960;51.86894000;5.39848000;2022-09-12T06:53:56;51.80;;;29.58;;
7829;SDS011;3960;51.86894000;5.39848000;2022-09-12T06:56:22;49.67;;;26.98;;
7829;SDS011;3960;51.86894000;5.39848000;2022-09-12T06:58:49;41.08;;;24.65;;
7829;SDS011;3960;51.86894000;5.39848000;2022-09-12T07:01:18;39.05;;;24.98;;
7829;SDS011;3960;51.86894000;5.39848000;2022-09-12T07:03:47;41.78;;;24.20;;
7829;SDS011;3960;51.86894000;5.39848000;2022-09-12T07:06:14;36.40;;;23.55;;
7829;SDS011;3960;51.86894000;5.39848000;2022-09-12T07:08:39;36.72;;;22.65;;
7829;SDS011;3960;51.86894000;5.39848000;2022-09-12T07:11:08;34.20;;;23.23;;
7829;SDS011;3960;51.86894000;5.39848000;2022-09-12T07:13:34;34.35;;;22.00;;
7829;SDS011;3960;51.86894000;5.39848000;2022-09-12T07:16:03;28.90;;;19.95;;
7829;SDS011;3960;51.86894000;5.39848000;2022-09-12T07:18:28;36.10;;;20.98;;
7829;SDS011;3960;51.86894000;5.39848000;2022-09-12T07:20:53;32.13;;;21.75;;
7829;SDS011;3960;51.86894000;5.39848000;2022-09-12T07:23:18;30.37;;;20.03;;
7829;SDS011;3960;51.86894000;5.39848000;2022-09-12T07:25:50;32.70;;;20.00;;
7829;SDS011;3960;51.86894000;5.39848000;2022-09-12T07:28:16;31.30;;;19.95;;
7829;SDS011;3960;51.86894000;5.39848000;2022-09-12T07:30:41;35.53;;;20.73;;
7829;SDS011;3960;51.86894000;5.39848000;2022-09-12T07:33:06;29.43;;;20.70;;
7829;SDS011;3960;51.86894000;5.39848000;2022-09-12T07:35:32;33.57;;;19.43;;
7829;SDS011;3960;51.86894000;5.39848000;2022-09-12T07:37:57;36.72;;;20.55;;
7829;SDS011;3960;51.86894000;5.39848000;2022-09-12T07:40:23;31.80;;;19.97;;
7829;SDS011;3960;51.86894000;5.39848000;2022-09-12T07:42:48;26.48;;;19.23;;
7829;SDS011;3960;51.86894000;5.39848000;2022-09-12T07:45:13;23.50;;;18.10;;
7829;SDS011;3960;51.86894000;5.39848000;2022-09-12T07:47:39;27.08;;;18.20;;
7829;SDS011;3960;51.86894000;5.39848000;2022-09-12T07:50:04;26.55;;;18.08;;
7829;SDS011;3960;51.86894000;5.39848000;2022-09-12T07:52:30;22.52;;;17.13;;
7829;SDS011;3960;51.86894000;5.39848000;2022-09-12T07:54:55;23.13;;;17.15;;
7829;SDS011;3960;51.86894000;5.39848000;2022-09-12T07:57:20;21.67;;;17.03;;
7829;SDS011;3960;51.86894000;5.39848000;2022-09-12T07:59:45;25.50;;;16.30;;
7829;SDS011;3960;51.86894000;5.39848000;2022-09-12T08:02:11;21.27;;;16.20;;
7829;SDS011;3960;51.86894000;5.39848000;2022-09-12T08:04:38;24.75;;;16.63;;
7829;SDS011;3960;51.86894000;5.39848000;2022-09-12T08:07:03;22.27;;;15.90;;
7829;SDS011;3960;51.86894000;5.39848000;2022-09-12T08:09:28;24.60;;;16.60;;
7829;SDS011;3960;51.86894000;5.39848000;2022-09-12T08:11:53;25.23;;;15.82;;
7829;SDS011;3960;51.86894000;5.39848000;2022-09-12T08:14:19;21.88;;;16.20;;
7829;SDS011;3960;51.86894000;5.39848000;2022-09-12T08:16:45;17.85;;;14.60;;
7829;SDS011;3960;51.86894000;5.39848000;2022-09-12T08:19:11;23.35;;;15.25;;
7829;SDS011;3960;51.86894000;5.39848000;2022-09-12T08:21:36;20.45;;;16.00;;
7829;SDS011;3960;51.86894000;5.39848000;2022-09-12T08:24:02;21.57;;;15.17;;
7829;SDS011;3960;51.86894000;5.39848000;2022-09-12T08:26:28;20.52;;;15.75;;
7829;SDS011;3960;51.86894000;5.39848000;2022-09-12T08:28:53;20.10;;;15.88;;
7829;SDS011;3960;51.86894000;5.39848000;2022-09-12T08:31:19;19.77;;;14.25;;
7829;SDS011;3960;51.86894000;5.39848000;2022-09-12T08:33:45;25.70;;;14.25;;
7829;SDS011;3960;51.86894000;5.39848000;2022-09-12T08:36:11;21.00;;;13.98;;
7829;SDS011;3960;51.86894000;5.39848000;2022-09-12T08:38:37;21.15;;;14.80;;
7829;SDS011;3960;51.86894000;5.39848000;2022-09-12T08:46:21;18.73;;;14.77;;
7829;SDS011;3960;51.86894000;5.39848000;2022-09-12T08:48:48;17.83;;;13.75;;
7829;SDS011;3960;51.86894000;5.39848000;2022-09-12T08:51:14;20.35;;;15.32;;
7829;SDS011;3960;51.86894000;5.39848000;2022-09-12T08:53:39;17.23;;;13.63;;
7829;SDS011;3960;51.86894000;5.39848000;2022-09-12T08:56:06;16.75;;;13.68;;
7829;SDS011;3960;51.86894000;5.39848000;2022-09-12T08:58:34;15.23;;;12.63;;
7829;SDS011;3960;51.86894000;5.39848000;2022-09-12T09:01:05;17.00;;;12.07;;
7829;SDS011;3960;51.86894000;5.39848000;2022-09-12T09:13:57;13.95;;;11.90;;
7829;SDS011;3960;51.86894000;5.39848000;2022-09-12T09:16:43;16.80;;;11.45;;
7829;SDS011;3960;51.86894000;5.39848000;2022-09-12T09:22:12;14.15;;;11.30;;
7829;SDS011;3960;51.86894000;5.39848000;2022-09-12T09:26:56;12.73;;;11.07;;
7829;SDS011;3960;51.86894000;5.39848000;2022-09-12T09:29:23;12.65;;;10.68;;
7829;SDS011;3960;51.86894000;5.39848000;2022-09-12T09:31:51;13.68;;;10.40;;
7829;SDS011;3960;51.86894000;5.39848000;2022-09-12T09:34:21;12.40;;;10.55;;
7829;SDS011;3960;51.86894000;5.39848000;2022-09-12T09:36:51;13.13;;;10.32;;
7829;SDS011;3960;51.86894000;5.39848000;2022-09-12T09:39:19;11.68;;;10.40;;
7829;SDS011;3960;51.86894000;5.39848000;2022-09-12T09:41:54;13.77;;;11.05;;
7829;SDS011;3960;51.86894000;5.39848000;2022-09-12T09:44:27;14.25;;;10.73;;
7829;SDS011;3960;51.86894000;5.39848000;2022-09-12T09:46:53;13.98;;;9.68;;
7829;SDS011;3960;51.86894000;5.39848000;2022-09-12T09:49:19;13.20;;;9.63;;
7829;SDS011;3960;51.86894000;5.39848000;2022-09-12T09:51:45;14.30;;;9.93;;
7829;SDS011;3960;51.86894000;5.39848000;2022-09-12T09:56:42;11.52;;;9.88;;
7829;SDS011;3960;51.86894000;5.39848000;2022-09-12T09:59:11;11.32;;;9.52;;
7829;SDS011;3960;51.86894000;5.39848000;2022-09-12T10:01:45;9.13;;;8.05;;
7829;SDS011;3960;51.86894000;5.39848000;2022-09-12T10:04:17;11.18;;;7.78;;
7829;SDS011;3960;51.86894000;5.39848000;2022-09-12T10:06:43;9.88;;;7.25;;
7829;SDS011;3960;51.86894000;5.39848000;2022-09-12T10:09:22;10.43;;;7.78;;
7829;SDS011;3960;51.86894000;5.39848000;2022-09-12T10:11:48;8.45;;;6.95;;
7829;SDS011;3960;51.86894000;5.39848000;2022-09-12T10:14:34;10.35;;;6.60;;
7829;SDS011;3960;51.86894000;5.39848000;2022-09-12T10:16:59;8.38;;;6.28;;
7829;SDS011;3960;51.86894000;5.39848000;2022-09-12T10:19:38;9.52;;;6.30;;
7829;SDS011;3960;51.86894000;5.39848000;2022-09-12T10:22:04;9.80;;;6.28;;
7829;SDS011;3960;51.86894000;5.39848000;2022-09-12T10:27:06;9.57;;;5.80;;
7829;SDS011;3960;51.86894000;5.39848000;2022-09-12T10:29:32;8.95;;;5.60;;
7829;SDS011;3960;51.86894000;5.39848000;2022-09-12T10:32:00;6.82;;;5.28;;
7829;SDS011;3960;51.86894000;5.39848000;2022-09-12T10:36:57;7.35;;;5.38;;
7829;SDS011;3960;51.86894000;5.39848000;2022-09-12T10:39:24;6.80;;;5.80;;
7829;SDS011;3960;51.86894000;5.39848000;2022-09-12T10:41:49;7.60;;;5.28;;
7829;SDS011;3960;51.86894000;5.39848000;2022-09-12T10:44:15;7.40;;;4.77;;
7829;SDS011;3960;51.86894000;5.39848000;2022-09-12T10:46:41;6.40;;;4.28;;
7829;SDS011;3960;51.86894000;5.39848000;2022-09-12T10:49:16;6.90;;;4.90;;
7829;SDS011;3960;51.86894000;5.39848000;2022-09-12T10:51:43;9.65;;;5.25;;
7829;SDS011;3960;51.86894000;5.39848000;2022-09-12T10:54:09;9.70;;;5.27;;
7829;SDS011;3960;51.86894000;5.39848000;2022-09-12T10:56:35;5.65;;;4.68;;
7829;SDS011;3960;51.86894000;5.39848000;2022-09-12T11:01:59;6.75;;;5.40;;
7829;SDS011;3960;51.86894000;5.39848000;2022-09-12T11:04:36;12.38;;;5.95;;
7829;SDS011;3960;51.86894000;5.39848000;2022-09-12T11:19:40;6.47;;;4.53;;
7829;SDS011;3960;51.86894000;5.39848000;2022-09-12T11:24:48;6.22;;;5.22;;
7829;SDS011;3960;51.86894000;5.39848000;2022-09-12T11:30:06;6.38;;;5.20;;
7829;SDS011;3960;51.86894000;5.39848000;2022-09-12T11:45:40;6.15;;;5.00;;
7829;SDS011;3960;51.86894000;5.39848000;2022-09-12T11:48:09;6.60;;;5.20;;
7829;SDS011;3960;51.86894000;5.39848000;2022-09-12T11:50:35;6.40;;;4.78;;
7829;SDS011;3960;51.86894000;5.39848000;2022-09-12T11:53:04;5.25;;;3.78;;
7829;SDS011;3960;51.86894000;5.39848000;2022-09-12T11:55:43;9.43;;;4.00;;
7829;SDS011;3960;51.86894000;5.39848000;2022-09-12T11:58:11;4.72;;;3.40;;
7829;SDS011;3960;51.86894000;5.39848000;2022-09-12T12:00:43;5.07;;;4.13;;
7829;SDS011;3960;51.86894000;5.39848000;2022-09-12T12:08:11;4.35;;;3.78;;
7829;SDS011;3960;51.86894000;5.39848000;2022-09-12T12:10:49;6.93;;;4.55;;
7829;SDS011;3960;51.86894000;5.39848000;2022-09-12T12:14:16;7.25;;;3.90;;
7829;SDS011;3960;51.86894000;5.39848000;2022-09-12T12:16:52;5.88;;;4.65;;
7829;SDS011;3960;51.86894000;5.39848000;2022-09-12T12:18:59;5.60;;;3.90;;
7829;SDS011;3960;51.86894000;5.39848000;2022-09-12T12:21:35;6.93;;;4.93;;
7829;SDS011;3960;51.86894000;5.39848000;2022-09-12T12:28:58;5.55;;;4.28;;
7829;SDS011;3960;51.86894000;5.39848000;2022-09-12T12:31:23;4.93;;;4.20;;
7829;SDS011;3960;51.86894000;5.39848000;2022-09-12T12:36:30;6.22;;;4.50;;
7829;SDS011;3960;51.86894000;5.39848000;2022-09-12T12:38:57;7.78;;;4.50;;
7829;SDS011;3960;51.86894000;5.39848000;2022-09-12T12:43:52;6.72;;;4.40;;
7829;SDS011;3960;51.86894000;5.39848000;2022-09-12T12:46:25;4.75;;;4.22;;
7829;SDS011;3960;51.86894000;5.39848000;2022-09-12T12:48:52;5.40;;;4.30;;
7829;SDS011;3960;51.86894000;5.39848000;2022-09-12T12:53:47;8.93;;;4.22;;
7829;SDS011;3960;51.86894000;5.39848000;2022-09-12T12:58:57;5.95;;;4.38;;
7829;SDS011;3960;51.86894000;5.39848000;2022-09-12T13:01:23;5.90;;;3.83;;
7829;SDS011;3960;51.86894000;5.39848000;2022-09-12T13:03:52;6.57;;;3.45;;
7829;SDS011;3960;51.86894000;5.39848000;2022-09-12T13:06:25;6.05;;;3.67;;
7829;SDS011;3960;51.86894000;5.39848000;2022-09-12T13:08:55;5.10;;;3.60;;
7829;SDS011;3960;51.86894000;5.39848000;2022-09-12T13:11:28;5.40;;;3.13;;
7829;SDS011;3960;51.86894000;5.39848000;2022-09-12T13:13:59;5.55;;;3.80;;
7829;SDS011;3960;51.86894000;5.39848000;2022-09-12T13:17:12;4.47;;;3.30;;
7829;SDS011;3960;51.86894000;5.39848000;2022-09-12T13:19:14;5.95;;;3.47;;
7829;SDS011;3960;51.86894000;5.39848000;2022-09-12T13:24:42;3.85;;;2.88;;
7829;SDS011;3960;51.86894000;5.39848000;2022-09-12T13:27:18;5.22;;;3.10;;
7829;SDS011;3960;51.86894000;5.39848000;2022-09-12T13:29:44;4.40;;;3.13;;
7829;SDS011;3960;51.86894000;5.39848000;2022-09-12T13:32:09;4.28;;;2.88;;
7829;SDS011;3960;51.86894000;5.39848000;2022-09-12T13:34:36;5.28;;;3.58;;
7829;SDS011;3960;51.86894000;5.39848000;2022-09-12T13:44:46;5.32;;;3.60;;
7829;SDS011;3960;51.86894000;5.39848000;2022-09-12T13:47:13;11.57;;;3.63;;
7829;SDS011;3960;51.86894000;5.39848000;2022-09-12T13:49:40;5.32;;;3.75;;
7829;SDS011;3960;51.86894000;5.39848000;2022-09-12T13:52:24;4.35;;;3.20;;
7829;SDS011;3960;51.86894000;5.39848000;2022-09-12T13:54:51;3.40;;;2.90;;
7829;SDS011;3960;51.86894000;5.39848000;2022-09-12T13:57:26;5.63;;;3.28;;
7829;SDS011;3960;51.86894000;5.39848000;2022-09-12T13:59:54;2.47;;;2.22;;
7829;SDS011;3960;51.86894000;5.39848000;2022-09-12T14:02:20;4.90;;;2.38;;
7829;SDS011;3960;51.86894000;5.39848000;2022-09-12T14:04:47;4.03;;;2.55;;
7829;SDS011;3960;51.86894000;5.39848000;2022-09-12T14:07:31;4.38;;;2.60;;
7829;SDS011;3960;51.86894000;5.39848000;2022-09-12T14:09:57;3.10;;;2.53;;
7829;SDS011;3960;51.86894000;5.39848000;2022-09-12T14:12:28;3.95;;;2.67;;
7829;SDS011;3960;51.86894000;5.39848000;2022-09-12T14:14:55;3.03;;;2.53;;
7829;SDS011;3960;51.86894000;5.39848000;2022-09-12T14:17:27;2.65;;;2.40;;
7829;SDS011;3960;51.86894000;5.39848000;2022-09-12T14:19:56;5.80;;;2.80;;
7829;SDS011;3960;51.86894000;5.39848000;2022-09-12T14:22:23;4.93;;;2.20;;
7829;SDS011;3960;51.86894000;5.39848000;2022-09-12T14:24:49;2.70;;;1.85;;
7829;SDS011;3960;51.86894000;5.39848000;2022-09-12T14:27:19;5.10;;;1.65;;
7829;SDS011;3960;51.86894000;5.39848000;2022-09-12T14:29:47;5.63;;;2.20;;
7829;SDS011;3960;51.86894000;5.39848000;2022-09-12T14:32:17;2.17;;;1.80;;
7829;SDS011;3960;51.86894000;5.39848000;2022-09-12T14:35:02;3.30;;;2.30;;
7829;SDS011;3960;51.86894000;5.39848000;2022-09-12T14:37:27;2.42;;;1.95;;
7829;SDS011;3960;51.86894000;5.39848000;2022-09-12T14:39:52;5.40;;;2.30;;
7829;SDS011;3960;51.86894000;5.39848000;2022-09-12T14:42:18;3.07;;;2.20;;
7829;SDS011;3960;51.86894000;5.39848000;2022-09-12T14:44:51;3.97;;;2.25;;
7829;SDS011;3960;51.86894000;5.39848000;2022-09-12T14:47:20;4.18;;;2.03;;
7829;SDS011;3960;51.86894000;5.39848000;2022-09-12T14:49:47;3.33;;;2.17;;
7829;SDS011;3960;51.86894000;5.39848000;2022-09-12T14:52:21;5.05;;;2.05;;
7829;SDS011;3960;51.86894000;5.39848000;2022-09-12T14:55:00;2.65;;;1.98;;
7829;SDS011;3960;51.86894000;5.39848000;2022-09-12T14:57:33;4.60;;;1.92;;
7829;SDS011;3960;51.86894000;5.39848000;2022-09-12T15:00:08;7.68;;;2.05;;
7829;SDS011;3960;51.86894000;5.39848000;2022-09-12T15:02:41;6.60;;;2.10;;
7829;SDS011;3960;51.86894000;5.39848000;2022-09-12T15:09:57;2.72;;;1.95;;
7829;SDS011;3960;51.86894000;5.39848000;2022-09-12T15:12:23;2.70;;;2.08;;